sensor_id;sensor_type;location;lat;lon;timestamp;P1;durP1;ratioP1;P2;durP2;ratioP2
19036;SDS011;9651;49.138;8.900;2023-05-15T00:01:07;4.53;;;3.40;;
19036;SDS011;9651;49.138;8.900;2023-05-15T00:05:10;5.00;;;3.47;;
19036;SDS011;9651;49.138;8.900;2023-05-15T00:09:12;4.63;;;3.60;;
19036;SDS011;9651;49.138;8.900;2023-05-15T00:13:15;4.00;;;3.40;;
19036;SDS011;9651;49.138;8.900;2023-05-15T00:17:18;5.77;;;3.40;;
19036;SDS011;9651;49.138;8.900;2023-05-15T00:21:20;3.93;;;3.23;;
19036;SDS011;9651;49.138;8.900;2023-05-15T00:25:22;4.63;;;3.90;;
19036;SDS011;9651;49.138;8.900;2023-05-15T00:29:24;6.57;;;3.90;;
19036;SDS011;9651;49.138;8.900;2023-05-15T00:33:27;5.37;;;3.80;;
19036;SDS011;9651;49.138;8.900;2023-05-15T00:37:30;5.07;;;4.07;;
19036;SDS011;9651;49.138;8.900;2023-05-15T00:41:32;3.90;;;3.23;;
19036;SDS011;9651;49.138;8.900;2023-05-15T00:45:35;7.63;;;3.37;;
19036;SDS011;9651;49.138;8.900;2023-05-15T00:49:41;4.73;;;3.37;;
19036;SDS011;9651;49.138;8.900;2023-05-15T00:53:43;6.20;;;4.03;;
19036;SDS011;9651;49.138;8.900;2023-05-15T00:57:45;5.27;;;3.80;;
19036;SDS011;9651;49.138;8.900;2023-05-15T01:01:49;3.97;;;3.43;;
19036;SDS011;9651;49.138;8.900;2023-05-15T01:05:52;4.93;;;3.97;;
19036;SDS011;9651;49.138;8.900;2023-05-15T01:09:54;4.10;;;3.50;;
19036;SDS011;9651;49.138;8.900;2023-05-15T01:13:57;4.60;;;3.83;;
19036;SDS011;9651;49.138;8.900;2023-05-15T01:17:59;4.23;;;3.50;;
19036;SDS011;9651;49.138;8.900;2023-05-15T01:31:20;4.27;;;3.10;;
19036;SDS011;9651;49.138;8.900;2023-05-15T01:35:26;4.90;;;3.77;;
19036;SDS011;9651;49.138;8.900;2023-05-15T01:39:31;4.07;;;3.53;;
19036;SDS011;9651;49.138;8.900;2023-05-15T01:43:36;9.60;;;4.43;;
19036;SDS011;9651;49.138;8.900;2023-05-15T01:47:43;7.83;;;4.17;;
19036;SDS011;9651;49.138;8.900;2023-05-15T01:51:47;4.00;;;3.60;;
19036;SDS011;9651;49.138;8.900;2023-05-15T01:55:53;5.77;;;3.33;;
19036;SDS011;9651;49.138;8.900;2023-05-15T01:59:55;3.90;;;3.50;;
19036;SDS011;9651;49.138;8.900;2023-05-15T02:04:00;5.00;;;3.83;;
19036;SDS011;9651;49.138;8.900;2023-05-15T02:08:04;4.87;;;3.17;;
19036;SDS011;9651;49.138;8.900;2023-05-15T02:12:07;5.17;;;3.77;;
19036;SDS011;9651;49.138;8.900;2023-05-15T02:16:10;7.80;;;3.80;;
19036;SDS011;9651;49.138;8.900;2023-05-15T02:20:13;4.53;;;3.53;;
19036;SDS011;9651;49.138;8.900;2023-05-15T02:24:16;4.20;;;3.57;;
19036;SDS011;9651;49.138;8.900;2023-05-15T02:28:20;4.13;;;3.60;;
19036;SDS011;9651;49.138;8.900;2023-05-15T02:32:30;4.83;;;3.93;;
19036;SDS011;9651;49.138;8.900;2023-05-15T02:36:45;7.93;;;4.93;;
19036;SDS011;9651;49.138;8.900;2023-05-15T02:40:49;6.80;;;4.23;;
19036;SDS011;9651;49.138;8.900;2023-05-15T02:44:52;5.73;;;4.13;;
19036;SDS011;9651;49.138;8.900;2023-05-15T02:48:56;6.77;;;4.53;;
19036;SDS011;9651;49.138;8.900;2023-05-15T02:53:05;4.03;;;3.63;;
19036;SDS011;9651;49.138;8.900;2023-05-15T02:57:09;6.93;;;4.33;;
19036;SDS011;9651;49.138;8.900;2023-05-15T03:01:13;5.80;;;4.23;;
19036;SDS011;9651;49.138;8.900;2023-05-15T03:05:15;5.27;;;4.20;;
19036;SDS011;9651;49.138;8.900;2023-05-15T03:09:19;7.20;;;4.40;;
19036;SDS011;9651;49.138;8.900;2023-05-15T03:13:21;6.43;;;4.97;;
19036;SDS011;9651;49.138;8.900;2023-05-15T03:17:23;4.83;;;4.23;;
19036;SDS011;9651;49.138;8.900;2023-05-15T03:21:25;6.57;;;4.40;;
19036;SDS011;9651;49.138;8.900;2023-05-15T03:25:28;5.03;;;3.83;;
19036;SDS011;9651;49.138;8.900;2023-05-15T03:29:30;5.13;;;4.17;;
19036;SDS011;9651;49.138;8.900;2023-05-15T03:33:33;4.13;;;3.43;;
19036;SDS011;9651;49.138;8.900;2023-05-15T03:37:35;3.73;;;3.40;;
19036;SDS011;9651;49.138;8.900;2023-05-15T03:41:38;4.60;;;3.83;;
19036;SDS011;9651;49.138;8.900;2023-05-15T03:45:40;5.00;;;4.30;;
19036;SDS011;9651;49.138;8.900;2023-05-15T03:49:42;8.20;;;4.83;;
19036;SDS011;9651;49.138;8.900;2023-05-15T03:53:43;5.90;;;4.63;;
19036;SDS011;9651;49.138;8.900;2023-05-15T03:57:47;6.03;;;4.47;;
19036;SDS011;9651;49.138;8.900;2023-05-15T04:01:49;5.40;;;4.33;;
19036;SDS011;9651;49.138;8.900;2023-05-15T04:05:51;5.13;;;4.57;;
19036;SDS011;9651;49.138;8.900;2023-05-15T04:09:53;7.87;;;4.70;;
19036;SDS011;9651;49.138;8.900;2023-05-15T04:13:56;5.33;;;4.20;;
19036;SDS011;9651;49.138;8.900;2023-05-15T04:17:58;5.97;;;4.67;;
19036;SDS011;9651;49.138;8.900;2023-05-15T04:22:00;7.23;;;4.53;;
19036;SDS011;9651;49.138;8.900;2023-05-15T04:26:02;5.73;;;4.47;;
19036;SDS011;9651;49.138;8.900;2023-05-15T04:30:06;9.93;;;5.27;;
19036;SDS011;9651;49.138;8.900;2023-05-15T04:34:08;7.30;;;5.33;;
19036;SDS011;9651;49.138;8.900;2023-05-15T04:38:10;6.67;;;4.93;;
19036;SDS011;9651;49.138;8.900;2023-05-15T04:42:12;7.00;;;5.07;;
19036;SDS011;9651;49.138;8.900;2023-05-15T04:46:15;5.87;;;4.63;;
19036;SDS011;9651;49.138;8.900;2023-05-15T04:50:17;9.20;;;4.87;;
19036;SDS011;9651;49.138;8.900;2023-05-15T04:54:19;5.87;;;4.73;;
19036;SDS011;9651;49.138;8.900;2023-05-15T04:58:21;6.10;;;4.83;;
19036;SDS011;9651;49.138;8.900;2023-05-15T05:02:24;6.33;;;5.17;;
19036;SDS011;9651;49.138;8.900;2023-05-15T05:06:26;5.60;;;5.00;;
19036;SDS011;9651;49.138;8.900;2023-05-15T05:10:28;4.50;;;4.10;;
19036;SDS011;9651;49.138;8.900;2023-05-15T05:14:29;6.57;;;5.20;;
19036;SDS011;9651;49.138;8.900;2023-05-15T05:18:33;5.70;;;5.13;;
19036;SDS011;9651;49.138;8.900;2023-05-15T05:22:35;6.07;;;5.32;;
19036;SDS011;9651;49.138;8.900;2023-05-15T05:26:36;6.75;;;4.97;;
19036;SDS011;9651;49.138;8.900;2023-05-15T05:30:38;7.03;;;5.20;;
19036;SDS011;9651;49.138;8.900;2023-05-15T05:34:41;7.40;;;5.57;;
19036;SDS011;9651;49.138;8.900;2023-05-15T05:38:43;5.70;;;5.10;;
19036;SDS011;9651;49.138;8.900;2023-05-15T05:42:45;6.87;;;5.47;;
19036;SDS011;9651;49.138;8.900;2023-05-15T05:46:47;5.47;;;4.83;;
19036;SDS011;9651;49.138;8.900;2023-05-15T05:50:51;6.63;;;5.10;;
19036;SDS011;9651;49.138;8.900;2023-05-15T05:54:53;5.93;;;5.00;;
19036;SDS011;9651;49.138;8.900;2023-05-15T05:58:55;9.07;;;4.82;;
19036;SDS011;9651;49.138;8.900;2023-05-15T06:02:57;5.93;;;4.78;;
19036;SDS011;9651;49.138;8.900;2023-05-15T06:07:01;8.80;;;5.57;;
19036;SDS011;9651;49.138;8.900;2023-05-15T06:11:03;6.47;;;5.47;;
19036;SDS011;9651;49.138;8.900;2023-05-15T06:15:05;6.80;;;4.97;;
19036;SDS011;9651;49.138;8.900;2023-05-15T06:19:08;5.43;;;4.87;;
19036;SDS011;9651;49.138;8.900;2023-05-15T06:23:12;8.23;;;5.55;;
19036;SDS011;9651;49.138;8.900;2023-05-15T06:27:13;7.13;;;4.45;;
19036;SDS011;9651;49.138;8.900;2023-05-15T06:31:15;6.00;;;5.40;;
19036;SDS011;9651;49.138;8.900;2023-05-15T06:35:17;4.50;;;4.10;;
19036;SDS011;9651;49.138;8.900;2023-05-15T06:39:21;5.55;;;4.07;;
19036;SDS011;9651;49.138;8.900;2023-05-15T06:43:23;5.10;;;4.60;;
19036;SDS011;9651;49.138;8.900;2023-05-15T06:47:25;4.80;;;4.30;;
19036;SDS011;9651;49.138;8.900;2023-05-15T06:51:27;8.80;;;4.90;;
19036;SDS011;9651;49.138;8.900;2023-05-15T06:55:30;4.93;;;3.70;;
19036;SDS011;9651;49.138;8.900;2023-05-15T06:59:33;4.68;;;3.88;;
19036;SDS011;9651;49.138;8.900;2023-05-15T07:03:35;7.53;;;3.70;;
19036;SDS011;9651;49.138;8.900;2023-05-15T07:07:37;4.95;;;3.65;;
19036;SDS011;9651;49.138;8.900;2023-05-15T07:11:41;6.55;;;3.88;;
19036;SDS011;9651;49.138;8.900;2023-05-15T07:15:43;5.32;;;3.92;;
19036;SDS011;9651;49.138;8.900;2023-05-15T07:19:45;7.07;;;4.00;;
19036;SDS011;9651;49.138;8.900;2023-05-15T07:23:47;4.07;;;3.70;;
19036;SDS011;9651;49.138;8.900;2023-05-15T07:27:51;4.10;;;3.67;;
19036;SDS011;9651;49.138;8.900;2023-05-15T07:31:53;4.97;;;4.25;;
19036;SDS011;9651;49.138;8.900;2023-05-15T07:35:55;4.65;;;4.10;;
19036;SDS011;9651;49.138;8.900;2023-05-15T07:39:56;8.07;;;4.07;;
19036;SDS011;9651;49.138;8.900;2023-05-15T07:44:00;5.47;;;3.03;;
19036;SDS011;9651;49.138;8.900;2023-05-15T07:48:11;3.20;;;2.88;;
19036;SDS011;9651;49.138;8.900;2023-05-15T07:52:14;4.30;;;3.90;;
19036;SDS011;9651;49.138;8.900;2023-05-15T07:56:16;5.00;;;3.38;;
19036;SDS011;9651;49.138;8.900;2023-05-15T08:00:19;3.53;;;3.20;;
19036;SDS011;9651;49.138;8.900;2023-05-15T08:04:22;4.00;;;3.28;;
19036;SDS011;9651;49.138;8.900;2023-05-15T08:08:23;3.97;;;3.00;;
19036;SDS011;9651;49.138;8.900;2023-05-15T08:12:25;4.60;;;2.88;;
19036;SDS011;9651;49.138;8.900;2023-05-15T08:16:29;4.53;;;3.10;;
19036;SDS011;9651;49.138;8.900;2023-05-15T08:20:30;3.13;;;2.22;;
19036;SDS011;9651;49.138;8.900;2023-05-15T08:24:32;4.70;;;2.78;;
19036;SDS011;9651;49.138;8.900;2023-05-15T08:28:34;4.03;;;2.53;;
19036;SDS011;9651;49.138;8.900;2023-05-15T08:32:37;4.97;;;3.08;;
19036;SDS011;9651;49.138;8.900;2023-05-15T08:36:39;2.67;;;2.47;;
19036;SDS011;9651;49.138;8.900;2023-05-15T08:40:41;4.32;;;3.03;;
19036;SDS011;9651;49.138;8.900;2023-05-15T08:44:47;3.95;;;2.90;;
19036;SDS011;9651;49.138;8.900;2023-05-15T08:48:51;3.10;;;2.80;;
19036;SDS011;9651;49.138;8.900;2023-05-15T08:52:54;3.85;;;2.65;;
19036;SDS011;9651;49.138;8.900;2023-05-15T08:56:59;2.97;;;2.72;;
19036;SDS011;9651;49.138;8.900;2023-05-15T09:01:02;3.15;;;2.55;;
19036;SDS011;9651;49.138;8.900;2023-05-15T09:05:06;2.90;;;2.60;;
19036;SDS011;9651;49.138;8.900;2023-05-15T09:09:08;2.55;;;2.28;;
19036;SDS011;9651;49.138;8.900;2023-05-15T09:13:12;3.03;;;2.42;;
19036;SDS011;9651;49.138;8.900;2023-05-15T09:17:16;2.65;;;2.45;;
19036;SDS011;9651;49.138;8.900;2023-05-15T09:21:22;3.55;;;2.58;;
19036;SDS011;9651;49.138;8.900;2023-05-15T09:25:31;2.72;;;2.53;;
19036;SDS011;9651;49.138;8.900;2023-05-15T09:29:36;2.75;;;2.40;;
19036;SDS011;9651;49.138;8.900;2023-05-15T09:33:39;4.75;;;2.50;;
19036;SDS011;9651;49.138;8.900;2023-05-15T09:37:43;2.88;;;2.10;;
19036;SDS011;9651;49.138;8.900;2023-05-15T09:41:45;2.75;;;2.00;;
19036;SDS011;9651;49.138;8.900;2023-05-15T09:45:47;3.05;;;2.40;;
19036;SDS011;9651;49.138;8.900;2023-05-15T09:49:49;2.53;;;2.33;;
19036;SDS011;9651;49.138;8.900;2023-05-15T09:53:53;2.42;;;2.22;;
19036;SDS011;9651;49.138;8.900;2023-05-15T09:58:05;3.35;;;2.95;;
19036;SDS011;9651;49.138;8.900;2023-05-15T10:02:12;3.17;;;2.00;;
19036;SDS011;9651;49.138;8.900;2023-05-15T10:06:16;2.80;;;2.22;;
19036;SDS011;9651;49.138;8.900;2023-05-15T10:10:20;3.45;;;2.22;;
19036;SDS011;9651;49.138;8.900;2023-05-15T10:14:23;2.33;;;2.13;;
19036;SDS011;9651;49.138;8.900;2023-05-15T10:18:27;2.28;;;2.08;;
19036;SDS011;9651;49.138;8.900;2023-05-15T10:22:33;13.82;;;3.95;;
19036;SDS011;9651;49.138;8.900;2023-05-15T10:26:40;2.47;;;2.28;;
19036;SDS011;9651;49.138;8.900;2023-05-15T10:30:43;3.03;;;2.38;;
19036;SDS011;9651;49.138;8.900;2023-05-15T10:34:46;2.58;;;2.38;;
19036;SDS011;9651;49.138;8.900;2023-05-15T10:38:48;2.70;;;2.50;;
19036;SDS011;9651;49.138;8.900;2023-05-15T10:42:53;2.38;;;2.28;;
19036;SDS011;9651;49.138;8.900;2023-05-15T10:46:59;6.63;;;2.40;;
19036;SDS011;9651;49.138;8.900;2023-05-15T10:51:02;2.88;;;2.67;;
19036;SDS011;9651;49.138;8.900;2023-05-15T10:55:07;2.50;;;2.30;;
19036;SDS011;9651;49.138;8.900;2023-05-15T10:59:16;2.75;;;2.50;;
19036;SDS011;9651;49.138;8.900;2023-05-15T11:03:33;2.80;;;2.60;;
19036;SDS011;9651;49.138;8.900;2023-05-15T11:07:36;2.70;;;2.50;;
19036;SDS011;9651;49.138;8.900;2023-05-15T11:11:52;5.03;;;2.42;;
19036;SDS011;9651;49.138;8.900;2023-05-15T11:15:57;3.13;;;2.83;;
19036;SDS011;9651;49.138;8.900;2023-05-15T11:19:59;4.25;;;2.60;;
19036;SDS011;9651;49.138;8.900;2023-05-15T11:24:04;3.92;;;2.90;;
19036;SDS011;9651;49.138;8.900;2023-05-15T11:28:12;2.63;;;2.42;;
19036;SDS011;9651;49.138;8.900;2023-05-15T11:32:32;5.25;;;2.78;;
19036;SDS011;9651;49.138;8.900;2023-05-15T11:36:57;3.03;;;2.72;;
19036;SDS011;9651;49.138;8.900;2023-05-15T11:40:59;2.88;;;2.65;;
19036;SDS011;9651;49.138;8.900;2023-05-15T11:45:03;3.03;;;2.67;;
19036;SDS011;9651;49.138;8.900;2023-05-15T11:49:07;2.90;;;2.67;;
19036;SDS011;9651;49.138;8.900;2023-05-15T11:53:10;2.78;;;2.50;;
19036;SDS011;9651;49.138;8.900;2023-05-15T11:57:13;3.05;;;2.45;;
19036;SDS011;9651;49.138;8.900;2023-05-15T12:01:15;4.22;;;2.35;;
19036;SDS011;9651;49.138;8.900;2023-05-15T12:05:18;2.25;;;2.05;;
19036;SDS011;9651;49.138;8.900;2023-05-15T12:09:20;2.92;;;2.67;;
19036;SDS011;9651;49.138;8.900;2023-05-15T12:13:26;4.25;;;2.67;;
19036;SDS011;9651;49.138;8.900;2023-05-15T12:17:29;3.35;;;2.17;;
19036;SDS011;9651;49.138;8.900;2023-05-15T12:21:33;4.28;;;2.67;;
19036;SDS011;9651;49.138;8.900;2023-05-15T12:25:42;3.83;;;2.50;;
19036;SDS011;9651;49.138;8.900;2023-05-15T12:29:46;4.65;;;2.10;;
19036;SDS011;9651;49.138;8.900;2023-05-15T12:33:48;2.95;;;2.60;;
19036;SDS011;9651;49.138;8.900;2023-05-15T12:37:51;4.63;;;2.60;;
19036;SDS011;9651;49.138;8.900;2023-05-15T12:41:56;3.47;;;2.20;;
19036;SDS011;9651;49.138;8.900;2023-05-15T12:45:58;3.80;;;2.40;;
19036;SDS011;9651;49.138;8.900;2023-05-15T12:50:00;3.85;;;2.53;;
19036;SDS011;9651;49.138;8.900;2023-05-15T12:54:03;4.00;;;3.38;;
19036;SDS011;9651;49.138;8.900;2023-05-15T12:58:08;3.15;;;2.78;;
19036;SDS011;9651;49.138;8.900;2023-05-15T13:02:11;3.33;;;2.70;;
19036;SDS011;9651;49.138;8.900;2023-05-15T13:06:14;4.25;;;3.20;;
19036;SDS011;9651;49.138;8.900;2023-05-15T13:10:19;4.50;;;3.08;;
19036;SDS011;9651;49.138;8.900;2023-05-15T13:14:22;3.33;;;3.03;;
19036;SDS011;9651;49.138;8.900;2023-05-15T13:18:28;3.85;;;3.17;;
19036;SDS011;9651;49.138;8.900;2023-05-15T13:22:30;4.07;;;3.30;;
19036;SDS011;9651;49.138;8.900;2023-05-15T13:26:33;5.90;;;3.75;;
19036;SDS011;9651;49.138;8.900;2023-05-15T13:30:35;7.05;;;4.47;;
19036;SDS011;9651;49.138;8.900;2023-05-15T13:34:40;6.78;;;4.50;;
19036;SDS011;9651;49.138;8.900;2023-05-15T13:38:42;12.65;;;5.63;;
19036;SDS011;9651;49.138;8.900;2023-05-15T13:42:45;5.28;;;4.43;;
19036;SDS011;9651;49.138;8.900;2023-05-15T13:46:48;6.75;;;5.78;;
19036;SDS011;9651;49.138;8.900;2023-05-15T13:50:51;8.13;;;4.93;;
19036;SDS011;9651;49.138;8.900;2023-05-15T13:54:53;4.60;;;4.20;;
19036;SDS011;9651;49.138;8.900;2023-05-15T13:58:57;4.38;;;3.90;;
19036;SDS011;9651;49.138;8.900;2023-05-15T14:02:58;4.25;;;3.85;;
19036;SDS011;9651;49.138;8.900;2023-05-15T14:07:00;4.60;;;4.13;;
19036;SDS011;9651;49.138;8.900;2023-05-15T14:11:02;4.80;;;4.30;;
19036;SDS011;9651;49.138;8.900;2023-05-15T14:15:06;8.43;;;5.78;;
19036;SDS011;9651;49.138;8.900;2023-05-15T14:19:10;7.22;;;5.63;;
19036;SDS011;9651;49.138;8.900;2023-05-15T14:23:12;6.47;;;5.32;;
19036;SDS011;9651;49.138;8.900;2023-05-15T14:27:14;7.70;;;5.68;;
19036;SDS011;9651;49.138;8.900;2023-05-15T14:31:17;10.10;;;5.97;;
19036;SDS011;9651;49.138;8.900;2023-05-15T14:35:19;5.65;;;5.00;;
19036;SDS011;9651;49.138;8.900;2023-05-15T14:39:22;6.32;;;4.90;;
19036;SDS011;9651;49.138;8.900;2023-05-15T14:43:24;7.45;;;4.78;;
19036;SDS011;9651;49.138;8.900;2023-05-15T14:47:27;6.40;;;4.28;;
19036;SDS011;9651;49.138;8.900;2023-05-15T14:51:29;6.80;;;4.55;;
19036;SDS011;9651;49.138;8.900;2023-05-15T14:55:31;4.72;;;4.22;;
19036;SDS011;9651;49.138;8.900;2023-05-15T14:59:33;5.57;;;4.07;;
19036;SDS011;9651;49.138;8.900;2023-05-15T15:03:37;4.50;;;3.78;;
19036;SDS011;9651;49.138;8.900;2023-05-15T15:07:57;6.90;;;3.92;;
19036;SDS011;9651;49.138;8.900;2023-05-15T15:12:04;5.07;;;4.03;;
19036;SDS011;9651;49.138;8.900;2023-05-15T15:16:07;5.30;;;4.03;;
19036;SDS011;9651;49.138;8.900;2023-05-15T15:20:10;4.95;;;4.00;;
19036;SDS011;9651;49.138;8.900;2023-05-15T15:24:14;5.05;;;4.50;;
19036;SDS011;9651;49.138;8.900;2023-05-15T15:28:16;4.35;;;3.95;;
19036;SDS011;9651;49.138;8.900;2023-05-15T15:32:18;5.00;;;4.47;;
19036;SDS011;9651;49.138;8.900;2023-05-15T15:36:21;6.85;;;4.38;;
19036;SDS011;9651;49.138;8.900;2023-05-15T15:40:24;4.55;;;4.15;;
19036;SDS011;9651;49.138;8.900;2023-05-15T15:44:25;3.72;;;3.25;;
19036;SDS011;9651;49.138;8.900;2023-05-15T15:48:27;3.63;;;3.33;;
19036;SDS011;9651;49.138;8.900;2023-05-15T15:52:30;4.25;;;3.67;;
19036;SDS011;9651;49.138;8.900;2023-05-15T15:56:32;3.53;;;3.10;;
19036;SDS011;9651;49.138;8.900;2023-05-15T16:00:34;4.68;;;3.25;;
19036;SDS011;9651;49.138;8.900;2023-05-15T16:04:37;3.83;;;3.42;;
19036;SDS011;9651;49.138;8.900;2023-05-15T16:08:41;4.50;;;3.50;;
19036;SDS011;9651;49.138;8.900;2023-05-15T16:12:43;4.18;;;3.45;;
19036;SDS011;9651;49.138;8.900;2023-05-15T16:16:45;4.38;;;3.13;;
19036;SDS011;9651;49.138;8.900;2023-05-15T16:20:48;3.85;;;3.17;;
19036;SDS011;9651;49.138;8.900;2023-05-15T16:24:51;3.60;;;3.30;;
19036;SDS011;9651;49.138;8.900;2023-05-15T16:28:53;3.67;;;2.90;;
19036;SDS011;9651;49.138;8.900;2023-05-15T16:32:56;4.80;;;3.10;;
19036;SDS011;9651;49.138;8.900;2023-05-15T16:36:57;4.43;;;3.33;;
19036;SDS011;9651;49.138;8.900;2023-05-15T16:41:01;5.00;;;3.72;;
19036;SDS011;9651;49.138;8.900;2023-05-15T16:45:03;6.18;;;4.13;;
19036;SDS011;9651;49.138;8.900;2023-05-15T16:49:06;7.22;;;4.65;;
19036;SDS011;9651;49.138;8.900;2023-05-15T16:53:08;4.75;;;3.88;;
19036;SDS011;9651;49.138;8.900;2023-05-15T16:57:11;5.70;;;4.40;;
19036;SDS011;9651;49.138;8.900;2023-05-15T17:01:14;6.60;;;4.53;;
19036;SDS011;9651;49.138;8.900;2023-05-15T17:05:16;4.20;;;3.80;;
19036;SDS011;9651;49.138;8.900;2023-05-15T17:09:18;5.07;;;3.95;;
19036;SDS011;9651;49.138;8.900;2023-05-15T17:13:21;3.90;;;3.55;;
19036;SDS011;9651;49.138;8.900;2023-05-15T17:17:23;5.00;;;3.95;;
19036;SDS011;9651;49.138;8.900;2023-05-15T17:21:25;4.90;;;4.40;;
19036;SDS011;9651;49.138;8.900;2023-05-15T17:25:27;5.45;;;4.13;;
19036;SDS011;9651;49.138;8.900;2023-05-15T17:29:30;5.97;;;4.55;;
19036;SDS011;9651;49.138;8.900;2023-05-15T17:33:32;4.65;;;4.03;;
19036;SDS011;9651;49.138;8.900;2023-05-15T17:37:34;4.65;;;3.45;;
19036;SDS011;9651;49.138;8.900;2023-05-15T17:41:36;4.63;;;3.85;;
19036;SDS011;9651;49.138;8.900;2023-05-15T17:45:40;6.13;;;3.53;;
19036;SDS011;9651;49.138;8.900;2023-05-15T17:49:42;5.80;;;4.05;;
19036;SDS011;9651;49.138;8.900;2023-05-15T17:53:44;5.03;;;4.22;;
19036;SDS011;9651;49.138;8.900;2023-05-15T17:57:46;4.60;;;3.70;;
19036;SDS011;9651;49.138;8.900;2023-05-15T18:01:49;4.45;;;3.80;;
19036;SDS011;9651;49.138;8.900;2023-05-15T18:05:51;5.18;;;4.07;;
19036;SDS011;9651;49.138;8.900;2023-05-15T18:09:53;5.35;;;4.00;;
19036;SDS011;9651;49.138;8.900;2023-05-15T18:13:55;4.82;;;4.28;;
19036;SDS011;9651;49.138;8.900;2023-05-15T18:17:59;5.28;;;4.65;;
19036;SDS011;9651;49.138;8.900;2023-05-15T18:22:01;6.80;;;4.88;;
19036;SDS011;9651;49.138;8.900;2023-05-15T18:26:02;5.60;;;4.97;;
19036;SDS011;9651;49.138;8.900;2023-05-15T18:30:05;6.55;;;5.32;;
19036;SDS011;9651;49.138;8.900;2023-05-15T18:34:09;5.70;;;4.90;;
19036;SDS011;9651;49.138;8.900;2023-05-15T18:38:11;6.28;;;5.05;;
19036;SDS011;9651;49.138;8.900;2023-05-15T18:42:13;7.95;;;6.05;;
19036;SDS011;9651;49.138;8.900;2023-05-15T18:46:17;6.28;;;5.20;;
19036;SDS011;9651;49.138;8.900;2023-05-15T18:50:20;6.80;;;5.63;;
19036;SDS011;9651;49.138;8.900;2023-05-15T18:54:24;6.25;;;5.07;;
19036;SDS011;9651;49.138;8.900;2023-05-15T18:58:26;6.32;;;5.38;;
19036;SDS011;9651;49.138;8.900;2023-05-15T19:02:36;5.60;;;5.05;;
19036;SDS011;9651;49.138;8.900;2023-05-15T19:06:41;6.25;;;5.60;;
19036;SDS011;9651;49.138;8.900;2023-05-15T19:10:46;6.07;;;5.22;;
19036;SDS011;9651;49.138;8.900;2023-05-15T19:14:48;6.25;;;5.65;;
19036;SDS011;9651;49.138;8.900;2023-05-15T19:18:50;17.45;;;5.78;;
19036;SDS011;9651;49.138;8.900;2023-05-15T19:22:53;8.88;;;5.80;;
19036;SDS011;9651;49.138;8.900;2023-05-15T19:26:55;7.57;;;6.28;;
19036;SDS011;9651;49.138;8.900;2023-05-15T19:30:57;7.30;;;6.60;;
19036;SDS011;9651;49.138;8.900;2023-05-15T19:34:59;8.50;;;6.00;;
19036;SDS011;9651;49.138;8.900;2023-05-15T19:39:02;7.20;;;6.03;;
19036;SDS011;9651;49.138;8.900;2023-05-15T19:43:04;7.50;;;6.00;;
19036;SDS011;9651;49.138;8.900;2023-05-15T19:47:06;7.60;;;6.78;;
19036;SDS011;9651;49.138;8.900;2023-05-15T19:51:08;7.32;;;6.57;;
19036;SDS011;9651;49.138;8.900;2023-05-15T19:55:12;8.02;;;6.18;;
19036;SDS011;9651;49.138;8.900;2023-05-15T19:59:14;8.68;;;6.93;;
19036;SDS011;9651;49.138;8.900;2023-05-15T20:03:16;10.27;;;7.05;;
19036;SDS011;9651;49.138;8.900;2023-05-15T20:07:18;8.85;;;7.55;;
19036;SDS011;9651;49.138;8.900;2023-05-15T20:11:21;9.95;;;8.10;;
19036;SDS011;9651;49.138;8.900;2023-05-15T20:15:23;11.57;;;7.15;;
19036;SDS011;9651;49.138;8.900;2023-05-15T20:19:28;7.88;;;6.38;;
19036;SDS011;9651;49.138;8.900;2023-05-15T20:23:31;10.68;;;7.03;;
19036;SDS011;9651;49.138;8.900;2023-05-15T20:27:37;8.45;;;6.90;;
19036;SDS011;9651;49.138;8.900;2023-05-15T20:31:39;11.95;;;7.05;;
19036;SDS011;9651;49.138;8.900;2023-05-15T20:35:41;8.45;;;6.60;;
19036;SDS011;9651;49.138;8.900;2023-05-15T20:39:44;8.30;;;6.22;;
19036;SDS011;9651;49.138;8.900;2023-05-15T20:43:47;6.90;;;6.20;;
19036;SDS011;9651;49.138;8.900;2023-05-15T20:47:50;8.00;;;5.93;;
19036;SDS011;9651;49.138;8.900;2023-05-15T20:51:52;8.82;;;6.25;;
19036;SDS011;9651;49.138;8.900;2023-05-15T20:55:53;7.20;;;5.50;;
19036;SDS011;9651;49.138;8.900;2023-05-15T20:59:57;7.03;;;6.00;;
19036;SDS011;9651;49.138;8.900;2023-05-15T21:03:58;7.00;;;6.13;;
19036;SDS011;9651;49.138;8.900;2023-05-15T21:08:00;8.13;;;6.95;;
19036;SDS011;9651;49.138;8.900;2023-05-15T21:12:02;9.73;;;7.63;;
19036;SDS011;9651;49.138;8.900;2023-05-15T21:16:07;9.77;;;7.57;;
19036;SDS011;9651;49.138;8.900;2023-05-15T21:20:09;7.82;;;6.15;;
19036;SDS011;9651;49.138;8.900;2023-05-15T21:24:11;10.88;;;9.02;;
19036;SDS011;9651;49.138;8.900;2023-05-15T21:28:13;13.15;;;8.35;;
19036;SDS011;9651;49.138;8.900;2023-05-15T21:32:16;8.30;;;6.72;;
19036;SDS011;9651;49.138;8.900;2023-05-15T21:36:19;7.28;;;6.50;;
19036;SDS011;9651;49.138;8.900;2023-05-15T21:40:21;7.10;;;6.32;;
19036;SDS011;9651;49.138;8.900;2023-05-15T21:44:23;8.50;;;7.22;;
19036;SDS011;9651;49.138;8.900;2023-05-15T21:48:26;10.82;;;6.35;;
19036;SDS011;9651;49.138;8.900;2023-05-15T21:52:28;9.90;;;6.65;;
19036;SDS011;9651;49.138;8.900;2023-05-15T21:56:29;9.00;;;8.07;;
19036;SDS011;9651;49.138;8.900;2023-05-15T22:00:31;10.80;;;8.60;;
19036;SDS011;9651;49.138;8.900;2023-05-15T22:04:34;10.32;;;9.00;;
19036;SDS011;9651;49.138;8.900;2023-05-15T22:08:36;11.00;;;9.35;;
19036;SDS011;9651;49.138;8.900;2023-05-15T22:12:38;12.77;;;9.60;;
19036;SDS011;9651;49.138;8.900;2023-05-15T22:16:40;10.43;;;8.85;;
19036;SDS011;9651;49.138;8.900;2023-05-15T22:20:47;11.82;;;8.02;;
19036;SDS011;9651;49.138;8.900;2023-05-15T22:25:00;11.68;;;9.77;;
19036;SDS011;9651;49.138;8.900;2023-05-15T22:29:05;12.98;;;9.73;;
19036;SDS011;9651;49.138;8.900;2023-05-15T22:33:08;13.30;;;9.50;;
19036;SDS011;9651;49.138;8.900;2023-05-15T22:37:14;14.17;;;9.93;;
19036;SDS011;9651;49.138;8.900;2023-05-15T22:41:23;11.40;;;8.55;;
19036;SDS011;9651;49.138;8.900;2023-05-15T22:45:33;13.93;;;9.10;;
19036;SDS011;9651;49.138;8.900;2023-05-15T22:49:35;11.87;;;10.00;;
19036;SDS011;9651;49.138;8.900;2023-05-15T22:53:41;11.80;;;10.05;;
19036;SDS011;9651;49.138;8.900;2023-05-15T22:57:43;15.85;;;11.00;;
19036;SDS011;9651;49.138;8.900;2023-05-15T23:01:45;13.80;;;11.30;;
19036;SDS011;9651;49.138;8.900;2023-05-15T23:05:51;13.43;;;11.30;;
19036;SDS011;9651;49.138;8.900;2023-05-15T23:09:54;12.60;;;9.90;;
19036;SDS011;9651;49.138;8.900;2023-05-15T23:13:56;11.55;;;9.68;;
19036;SDS011;9651;49.138;8.900;2023-05-15T23:17:58;12.57;;;10.00;;
19036;SDS011;9651;49.138;8.900;2023-05-15T23:22:00;12.20;;;10.10;;
19036;SDS011;9651;49.138;8.900;2023-05-15T23:26:04;12.52;;;9.77;;
19036;SDS011;9651;49.138;8.900;2023-05-15T23:30:06;13.00;;;10.95;;
19036;SDS011;9651;49.138;8.900;2023-05-15T23:34:08;16.20;;;12.23;;
19036;SDS011;9651;49.138;8.900;2023-05-15T23:38:10;18.83;;;13.63;;
19036;SDS011;9651;49.138;8.900;2023-05-15T23:42:14;17.75;;;12.75;;
19036;SDS011;9651;49.138;8.900;2023-05-15T23:46:16;17.58;;;12.80;;
19036;SDS011;9651;49.138;8.900;2023-05-15T23:50:17;16.47;;;13.23;;
19036;SDS011;9651;49.138;8.900;2023-05-15T23:54:20;19.63;;;14.77;;
19036;SDS011;9651;49.138;8.900;2023-05-15T23:58:23;18.98;;;14.85;;
